sensor_id;sensor_type;location;lat;lon;timestamp;P1;durP1;ratioP1;P2;durP2;ratioP2
47896;SDS011;39629;51.400;5.494;2024-01-30T00:03:52;11.07;;;5.10;;
47896;SDS011;39629;51.400;5.494;2024-01-30T00:08:54;9.95;;;4.65;;
47896;SDS011;39629;51.400;5.494;2024-01-30T00:13:55;10.07;;;4.85;;
47896;SDS011;39629;51.400;5.494;2024-01-30T00:18:59;10.18;;;5.03;;
47896;SDS011;39629;51.400;5.494;2024-01-30T00:24:02;12.10;;;4.78;;
47896;SDS011;39629;51.400;5.494;2024-01-30T00:29:04;9.88;;;4.50;;
47896;SDS011;39629;51.400;5.494;2024-01-30T00:34:07;11.48;;;5.00;;
47896;SDS011;39629;51.400;5.494;2024-01-30T00:39:09;11.40;;;5.13;;
47896;SDS011;39629;51.400;5.494;2024-01-30T00:44:12;9.70;;;4.75;;
47896;SDS011;39629;51.400;5.494;2024-01-30T00:49:15;9.10;;;4.88;;
47896;SDS011;39629;51.400;5.494;2024-01-30T00:54:16;11.70;;;5.32;;
47896;SDS011;39629;51.400;5.494;2024-01-30T00:59:18;9.27;;;5.10;;
47896;SDS011;39629;51.400;5.494;2024-01-30T01:04:21;10.93;;;4.95;;
47896;SDS011;39629;51.400;5.494;2024-01-30T01:09:23;11.00;;;5.25;;
47896;SDS011;39629;51.400;5.494;2024-01-30T01:14:24;10.48;;;4.60;;
47896;SDS011;39629;51.400;5.494;2024-01-30T01:19:28;10.27;;;5.22;;
47896;SDS011;39629;51.400;5.494;2024-01-30T01:24:30;10.90;;;5.63;;
47896;SDS011;39629;51.400;5.494;2024-01-30T01:29:32;10.27;;;5.07;;
47896;SDS011;39629;51.400;5.494;2024-01-30T01:34:35;10.00;;;4.85;;
47896;SDS011;39629;51.400;5.494;2024-01-30T01:39:37;10.43;;;4.95;;
47896;SDS011;39629;51.400;5.494;2024-01-30T01:44:38;11.35;;;5.10;;
47896;SDS011;39629;51.400;5.494;2024-01-30T01:49:41;10.50;;;5.40;;
47896;SDS011;39629;51.400;5.494;2024-01-30T01:54:43;11.13;;;5.07;;
47896;SDS011;39629;51.400;5.494;2024-01-30T01:59:45;10.07;;;4.50;;
47896;SDS011;39629;51.400;5.494;2024-01-30T02:04:49;11.45;;;5.20;;
47896;SDS011;39629;51.400;5.494;2024-01-30T02:09:50;10.90;;;5.10;;
47896;SDS011;39629;51.400;5.494;2024-01-30T02:14:52;9.75;;;5.13;;
47896;SDS011;39629;51.400;5.494;2024-01-30T02:19:56;12.70;;;4.65;;
47896;SDS011;39629;51.400;5.494;2024-01-30T02:24:59;9.48;;;4.80;;
47896;SDS011;39629;51.400;5.494;2024-01-30T02:30:01;8.35;;;4.90;;
47896;SDS011;39629;51.400;5.494;2024-01-30T02:35:03;12.25;;;4.72;;
47896;SDS011;39629;51.400;5.494;2024-01-30T02:40:07;8.75;;;4.53;;
47896;SDS011;39629;51.400;5.494;2024-01-30T02:45:10;9.68;;;4.97;;
47896;SDS011;39629;51.400;5.494;2024-01-30T02:50:12;12.13;;;4.72;;
47896;SDS011;39629;51.400;5.494;2024-01-30T02:55:16;11.63;;;4.60;;
47896;SDS011;39629;51.400;5.494;2024-01-30T03:00:19;15.23;;;5.00;;
47896;SDS011;39629;51.400;5.494;2024-01-30T03:05:21;8.98;;;4.55;;
47896;SDS011;39629;51.400;5.494;2024-01-30T03:10:24;9.73;;;4.38;;
47896;SDS011;39629;51.400;5.494;2024-01-30T03:15:25;7.50;;;4.18;;
47896;SDS011;39629;51.400;5.494;2024-01-30T03:20:27;8.80;;;4.30;;
47896;SDS011;39629;51.400;5.494;2024-01-30T03:25:30;9.68;;;4.10;;
47896;SDS011;39629;51.400;5.494;2024-01-30T03:30:32;9.68;;;4.60;;
47896;SDS011;39629;51.400;5.494;2024-01-30T03:35:35;9.45;;;4.28;;
47896;SDS011;39629;51.400;5.494;2024-01-30T03:40:38;13.35;;;4.00;;
47896;SDS011;39629;51.400;5.494;2024-01-30T03:45:40;9.77;;;4.53;;
47896;SDS011;39629;51.400;5.494;2024-01-30T03:50:41;7.90;;;4.25;;
47896;SDS011;39629;51.400;5.494;2024-01-30T03:55:45;9.27;;;4.70;;
47896;SDS011;39629;51.400;5.494;2024-01-30T04:00:46;10.55;;;4.22;;
47896;SDS011;39629;51.400;5.494;2024-01-30T04:05:48;8.05;;;4.13;;
47896;SDS011;39629;51.400;5.494;2024-01-30T04:10:51;10.82;;;4.70;;
47896;SDS011;39629;51.400;5.494;2024-01-30T04:15:52;11.32;;;4.57;;
47896;SDS011;39629;51.400;5.494;2024-01-30T04:20:55;10.40;;;4.28;;
47896;SDS011;39629;51.400;5.494;2024-01-30T04:25:58;10.90;;;4.28;;
47896;SDS011;39629;51.400;5.494;2024-01-30T04:31:00;11.27;;;4.53;;
47896;SDS011;39629;51.400;5.494;2024-01-30T04:36:01;9.73;;;4.55;;
47896;SDS011;39629;51.400;5.494;2024-01-30T04:41:05;9.85;;;4.10;;
47896;SDS011;39629;51.400;5.494;2024-01-30T04:46:07;10.48;;;4.47;;
47896;SDS011;39629;51.400;5.494;2024-01-30T04:51:08;8.27;;;4.15;;
47896;SDS011;39629;51.400;5.494;2024-01-30T04:56:11;9.82;;;4.20;;
47896;SDS011;39629;51.400;5.494;2024-01-30T05:01:14;8.73;;;4.05;;
47896;SDS011;39629;51.400;5.494;2024-01-30T05:06:23;7.77;;;3.87;;
47896;SDS011;39629;51.400;5.494;2024-01-30T05:11:27;7.88;;;3.95;;
47896;SDS011;39629;51.400;5.494;2024-01-30T05:16:28;7.03;;;3.65;;
47896;SDS011;39629;51.400;5.494;2024-01-30T05:21:30;7.50;;;3.90;;
47896;SDS011;39629;51.400;5.494;2024-01-30T05:26:33;8.00;;;3.90;;
47896;SDS011;39629;51.400;5.494;2024-01-30T05:31:35;7.22;;;3.38;;
47896;SDS011;39629;51.400;5.494;2024-01-30T05:36:37;7.68;;;3.63;;
47896;SDS011;39629;51.400;5.494;2024-01-30T05:41:40;7.72;;;3.97;;
47896;SDS011;39629;51.400;5.494;2024-01-30T05:46:41;7.05;;;3.40;;
47896;SDS011;39629;51.400;5.494;2024-01-30T05:51:43;8.55;;;3.72;;
47896;SDS011;39629;51.400;5.494;2024-01-30T05:56:46;7.40;;;3.60;;
47896;SDS011;39629;51.400;5.494;2024-01-30T06:01:48;9.75;;;3.53;;
47896;SDS011;39629;51.400;5.494;2024-01-30T06:06:49;7.88;;;3.50;;
47896;SDS011;39629;51.400;5.494;2024-01-30T06:11:52;6.40;;;3.35;;
47896;SDS011;39629;51.400;5.494;2024-01-30T06:16:54;5.82;;;3.42;;
47896;SDS011;39629;51.400;5.494;2024-01-30T06:21:56;8.52;;;4.00;;
47896;SDS011;39629;51.400;5.494;2024-01-30T06:26:59;7.28;;;3.70;;
47896;SDS011;39629;51.400;5.494;2024-01-30T06:32:01;8.43;;;3.85;;
47896;SDS011;39629;51.400;5.494;2024-01-30T06:37:03;8.20;;;3.35;;
47896;SDS011;39629;51.400;5.494;2024-01-30T06:42:06;7.25;;;3.67;;
47896;SDS011;39629;51.400;5.494;2024-01-30T06:47:08;11.50;;;4.28;;
47896;SDS011;39629;51.400;5.494;2024-01-30T06:52:09;7.65;;;3.75;;
47896;SDS011;39629;51.400;5.494;2024-01-30T06:57:12;7.22;;;3.60;;
47896;SDS011;39629;51.400;5.494;2024-01-30T07:02:14;7.93;;;3.47;;
47896;SDS011;39629;51.400;5.494;2024-01-30T07:07:16;8.38;;;3.60;;
47896;SDS011;39629;51.400;5.494;2024-01-30T07:12:19;6.18;;;3.80;;
47896;SDS011;39629;51.400;5.494;2024-01-30T07:17:21;7.75;;;3.60;;
47896;SDS011;39629;51.400;5.494;2024-01-30T07:22:22;7.60;;;3.58;;
47896;SDS011;39629;51.400;5.494;2024-01-30T07:27:26;7.70;;;3.30;;
47896;SDS011;39629;51.400;5.494;2024-01-30T07:32:28;7.07;;;3.55;;
47896;SDS011;39629;51.400;5.494;2024-01-30T07:37:30;7.07;;;3.65;;
47896;SDS011;39629;51.400;5.494;2024-01-30T07:42:33;6.03;;;3.35;;
47896;SDS011;39629;51.400;5.494;2024-01-30T07:47:35;8.95;;;3.60;;
47896;SDS011;39629;51.400;5.494;2024-01-30T07:52:37;7.65;;;3.60;;
47896;SDS011;39629;51.400;5.494;2024-01-30T07:57:40;6.72;;;3.70;;
47896;SDS011;39629;51.400;5.494;2024-01-30T08:02:43;6.73;;;3.67;;
47896;SDS011;39629;51.400;5.494;2024-01-30T08:07:53;8.02;;;3.72;;
47896;SDS011;39629;51.400;5.494;2024-01-30T08:12:56;7.75;;;3.63;;
47896;SDS011;39629;51.400;5.494;2024-01-30T08:17:58;7.45;;;3.97;;
47896;SDS011;39629;51.400;5.494;2024-01-30T08:23:00;11.63;;;3.65;;
47896;SDS011;39629;51.400;5.494;2024-01-30T08:28:03;7.97;;;3.80;;
47896;SDS011;39629;51.400;5.494;2024-01-30T08:33:05;8.00;;;3.87;;
47896;SDS011;39629;51.400;5.494;2024-01-30T08:38:07;8.20;;;4.43;;
47896;SDS011;39629;51.400;5.494;2024-01-30T08:43:10;8.85;;;4.38;;
47896;SDS011;39629;51.400;5.494;2024-01-30T08:48:12;9.82;;;4.13;;
47896;SDS011;39629;51.400;5.494;2024-01-30T08:53:14;10.82;;;4.63;;
47896;SDS011;39629;51.400;5.494;2024-01-30T08:58:17;7.75;;;3.97;;
47896;SDS011;39629;51.400;5.494;2024-01-30T09:03:19;11.13;;;4.40;;
47896;SDS011;39629;51.400;5.494;2024-01-30T09:08:21;6.88;;;4.13;;
47896;SDS011;39629;51.400;5.494;2024-01-30T09:13:24;9.95;;;4.25;;
47896;SDS011;39629;51.400;5.494;2024-01-30T09:18:25;8.82;;;4.57;;
47896;SDS011;39629;51.400;5.494;2024-01-30T09:23:27;8.68;;;4.78;;
47896;SDS011;39629;51.400;5.494;2024-01-30T09:28:30;10.77;;;4.43;;
47896;SDS011;39629;51.400;5.494;2024-01-30T09:33:32;12.13;;;4.50;;
47896;SDS011;39629;51.400;5.494;2024-01-30T09:38:33;7.88;;;4.50;;
47896;SDS011;39629;51.400;5.494;2024-01-30T09:43:37;8.02;;;4.30;;
47896;SDS011;39629;51.400;5.494;2024-01-30T09:48:40;11.68;;;4.40;;
47896;SDS011;39629;51.400;5.494;2024-01-30T09:53:42;9.77;;;4.97;;
47896;SDS011;39629;51.400;5.494;2024-01-30T09:58:46;11.05;;;4.53;;
47896;SDS011;39629;51.400;5.494;2024-01-30T10:03:50;11.10;;;5.28;;
47896;SDS011;39629;51.400;5.494;2024-01-30T10:08:53;10.95;;;4.95;;
47896;SDS011;39629;51.400;5.494;2024-01-30T10:13:56;9.82;;;4.32;;
47896;SDS011;39629;51.400;5.494;2024-01-30T10:18:57;9.50;;;4.22;;
47896;SDS011;39629;51.400;5.494;2024-01-30T10:23:59;8.95;;;3.97;;
47896;SDS011;39629;51.400;5.494;2024-01-30T10:29:02;10.07;;;4.30;;
47896;SDS011;39629;51.400;5.494;2024-01-30T10:34:04;11.60;;;4.80;;
47896;SDS011;39629;51.400;5.494;2024-01-30T10:39:05;8.07;;;4.18;;
47896;SDS011;39629;51.400;5.494;2024-01-30T10:44:10;10.07;;;4.35;;
47896;SDS011;39629;51.400;5.494;2024-01-30T10:49:12;13.57;;;4.78;;
47896;SDS011;39629;51.400;5.494;2024-01-30T10:54:15;11.57;;;4.85;;
47896;SDS011;39629;51.400;5.494;2024-01-30T10:59:20;8.47;;;4.67;;
47896;SDS011;39629;51.400;5.494;2024-01-30T11:04:25;10.75;;;4.75;;
47896;SDS011;39629;51.400;5.494;2024-01-30T11:09:28;10.70;;;4.75;;
47896;SDS011;39629;51.400;5.494;2024-01-30T11:14:31;10.68;;;4.78;;
47896;SDS011;39629;51.400;5.494;2024-01-30T11:19:33;12.17;;;4.80;;
47896;SDS011;39629;51.400;5.494;2024-01-30T11:24:38;11.13;;;4.15;;
47896;SDS011;39629;51.400;5.494;2024-01-30T11:29:42;10.38;;;4.40;;
47896;SDS011;39629;51.400;5.494;2024-01-30T11:34:44;11.55;;;4.60;;
47896;SDS011;39629;51.400;5.494;2024-01-30T11:39:45;8.32;;;4.28;;
47896;SDS011;39629;51.400;5.494;2024-01-30T11:44:49;9.23;;;4.60;;
47896;SDS011;39629;51.400;5.494;2024-01-30T11:49:51;8.52;;;3.88;;
47896;SDS011;39629;51.400;5.494;2024-01-30T11:54:52;6.18;;;3.00;;
47896;SDS011;39629;51.400;5.494;2024-01-30T11:59:55;9.50;;;3.35;;
47896;SDS011;39629;51.400;5.494;2024-01-30T12:04:57;6.75;;;3.20;;
47896;SDS011;39629;51.400;5.494;2024-01-30T12:09:59;6.85;;;2.90;;
47896;SDS011;39629;51.400;5.494;2024-01-30T12:15:02;4.55;;;2.67;;
47896;SDS011;39629;51.400;5.494;2024-01-30T12:20:04;8.30;;;2.45;;
47896;SDS011;39629;51.400;5.494;2024-01-30T12:25:07;7.85;;;2.80;;
47896;SDS011;39629;51.400;5.494;2024-01-30T12:30:13;3.97;;;2.15;;
47896;SDS011;39629;51.400;5.494;2024-01-30T12:35:15;8.68;;;2.92;;
47896;SDS011;39629;51.400;5.494;2024-01-30T12:40:17;7.50;;;3.10;;
47896;SDS011;39629;51.400;5.494;2024-01-30T12:45:21;9.80;;;3.10;;
47896;SDS011;39629;51.400;5.494;2024-01-30T12:50:22;3.38;;;1.60;;
47896;SDS011;39629;51.400;5.494;2024-01-30T12:55:24;3.53;;;1.10;;
47896;SDS011;39629;51.400;5.494;2024-01-30T13:00:29;3.08;;;0.80;;
47896;SDS011;39629;51.400;5.494;2024-01-30T13:05:31;4.30;;;0.80;;
47896;SDS011;39629;51.400;5.494;2024-01-30T13:10:33;1.67;;;0.50;;
47896;SDS011;39629;51.400;5.494;2024-01-30T13:15:36;1.27;;;0.60;;
47896;SDS011;39629;51.400;5.494;2024-01-30T13:20:37;3.50;;;0.55;;
47896;SDS011;39629;51.400;5.494;2024-01-30T13:25:39;3.50;;;0.70;;
47896;SDS011;39629;51.400;5.494;2024-01-30T13:30:42;2.45;;;0.50;;
47896;SDS011;39629;51.400;5.494;2024-01-30T13:35:44;1.60;;;0.40;;
47896;SDS011;39629;51.400;5.494;2024-01-30T13:40:46;3.05;;;0.50;;
47896;SDS011;39629;51.400;5.494;2024-01-30T13:45:50;1.93;;;0.63;;
47896;SDS011;39629;51.400;5.494;2024-01-30T13:50:53;1.45;;;0.50;;
47896;SDS011;39629;51.400;5.494;2024-01-30T13:55:54;3.00;;;0.68;;
47896;SDS011;39629;51.400;5.494;2024-01-30T14:00:57;4.20;;;0.55;;
47896;SDS011;39629;51.400;5.494;2024-01-30T14:05:59;2.70;;;0.60;;
47896;SDS011;39629;51.400;5.494;2024-01-30T14:11:01;1.70;;;0.60;;
47896;SDS011;39629;51.400;5.494;2024-01-30T14:16:05;3.03;;;0.60;;
47896;SDS011;39629;51.400;5.494;2024-01-30T14:21:07;2.45;;;0.52;;
47896;SDS011;39629;51.400;5.494;2024-01-30T14:26:08;2.17;;;0.50;;
47896;SDS011;39629;51.400;5.494;2024-01-30T14:31:11;2.80;;;0.70;;
47896;SDS011;39629;51.400;5.494;2024-01-30T14:36:14;3.95;;;0.60;;
47896;SDS011;39629;51.400;5.494;2024-01-30T14:41:15;2.20;;;0.80;;
47896;SDS011;39629;51.400;5.494;2024-01-30T14:46:18;3.58;;;0.68;;
47896;SDS011;39629;51.400;5.494;2024-01-30T14:51:20;2.15;;;0.90;;
47896;SDS011;39629;51.400;5.494;2024-01-30T14:56:22;2.22;;;0.77;;
47896;SDS011;39629;51.400;5.494;2024-01-30T15:01:25;2.58;;;0.80;;
47896;SDS011;39629;51.400;5.494;2024-01-30T15:06:27;3.38;;;0.98;;
47896;SDS011;39629;51.400;5.494;2024-01-30T15:11:29;5.57;;;1.10;;
47896;SDS011;39629;51.400;5.494;2024-01-30T15:16:32;2.30;;;1.10;;
47896;SDS011;39629;51.400;5.494;2024-01-30T15:21:34;3.72;;;1.30;;
47896;SDS011;39629;51.400;5.494;2024-01-30T15:26:35;5.80;;;1.70;;
47896;SDS011;39629;51.400;5.494;2024-01-30T15:31:38;3.70;;;1.52;;
47896;SDS011;39629;51.400;5.494;2024-01-30T15:36:40;4.38;;;1.85;;
47896;SDS011;39629;51.400;5.494;2024-01-30T15:41:42;6.45;;;3.20;;
47896;SDS011;39629;51.400;5.494;2024-01-30T15:46:45;6.50;;;3.80;;
47896;SDS011;39629;51.400;5.494;2024-01-30T15:51:47;8.60;;;3.88;;
47896;SDS011;39629;51.400;5.494;2024-01-30T15:56:49;6.93;;;3.92;;
47896;SDS011;39629;51.400;5.494;2024-01-30T16:01:52;7.97;;;3.83;;
47896;SDS011;39629;51.400;5.494;2024-01-30T16:06:53;8.18;;;3.78;;
47896;SDS011;39629;51.400;5.494;2024-01-30T16:11:55;7.72;;;3.42;;
47896;SDS011;39629;51.400;5.494;2024-01-30T16:16:58;4.88;;;2.90;;
47896;SDS011;39629;51.400;5.494;2024-01-30T16:22:00;6.78;;;3.20;;
47896;SDS011;39629;51.400;5.494;2024-01-30T16:27:01;7.13;;;3.50;;
47896;SDS011;39629;51.400;5.494;2024-01-30T16:32:05;5.25;;;3.30;;
47896;SDS011;39629;51.400;5.494;2024-01-30T16:37:07;8.05;;;3.10;;
47896;SDS011;39629;51.400;5.494;2024-01-30T16:42:09;7.82;;;3.25;;
47896;SDS011;39629;51.400;5.494;2024-01-30T16:47:14;6.97;;;3.42;;
47896;SDS011;39629;51.400;5.494;2024-01-30T16:52:15;6.82;;;3.17;;
47896;SDS011;39629;51.400;5.494;2024-01-30T16:57:17;6.18;;;3.67;;
47896;SDS011;39629;51.400;5.494;2024-01-30T17:02:20;8.02;;;4.28;;
47896;SDS011;39629;51.400;5.494;2024-01-30T17:07:21;10.07;;;4.32;;
47896;SDS011;39629;51.400;5.494;2024-01-30T17:12:23;8.35;;;4.25;;
47896;SDS011;39629;51.400;5.494;2024-01-30T17:17:26;10.90;;;4.20;;
47896;SDS011;39629;51.400;5.494;2024-01-30T17:22:28;9.93;;;5.05;;
47896;SDS011;39629;51.400;5.494;2024-01-30T17:27:30;12.40;;;5.57;;
47896;SDS011;39629;51.400;5.494;2024-01-30T17:32:33;14.05;;;6.40;;
47896;SDS011;39629;51.400;5.494;2024-01-30T17:37:34;10.93;;;5.38;;
47896;SDS011;39629;51.400;5.494;2024-01-30T17:42:38;11.93;;;5.63;;
47896;SDS011;39629;51.400;5.494;2024-01-30T17:47:41;10.98;;;5.20;;
47896;SDS011;39629;51.400;5.494;2024-01-30T17:52:43;15.30;;;5.78;;
47896;SDS011;39629;51.400;5.494;2024-01-30T17:57:44;9.60;;;5.30;;
47896;SDS011;39629;51.400;5.494;2024-01-30T18:02:47;10.82;;;5.57;;
47896;SDS011;39629;51.400;5.494;2024-01-30T18:07:49;14.05;;;5.22;;
47896;SDS011;39629;51.400;5.494;2024-01-30T18:12:50;14.60;;;5.93;;
47896;SDS011;39629;51.400;5.494;2024-01-30T18:17:55;11.17;;;5.80;;
47896;SDS011;39629;51.400;5.494;2024-01-30T18:22:57;12.50;;;6.55;;
47896;SDS011;39629;51.400;5.494;2024-01-30T18:27:58;12.48;;;5.97;;
47896;SDS011;39629;51.400;5.494;2024-01-30T18:33:02;11.10;;;5.65;;
47896;SDS011;39629;51.400;5.494;2024-01-30T18:38:04;11.53;;;5.33;;
47896;SDS011;39629;51.400;5.494;2024-01-30T18:43:06;13.07;;;5.30;;
47896;SDS011;39629;51.400;5.494;2024-01-30T18:48:09;12.65;;;5.13;;
47896;SDS011;39629;51.400;5.494;2024-01-30T18:53:12;11.35;;;5.65;;
47896;SDS011;39629;51.400;5.494;2024-01-30T18:58:13;11.05;;;5.05;;
47896;SDS011;39629;51.400;5.494;2024-01-30T19:03:19;12.30;;;5.53;;
47896;SDS011;39629;51.400;5.494;2024-01-30T19:08:21;17.17;;;5.93;;
47896;SDS011;39629;51.400;5.494;2024-01-30T19:13:22;11.27;;;5.65;;
47896;SDS011;39629;51.400;5.494;2024-01-30T19:18:25;12.43;;;6.43;;
47896;SDS011;39629;51.400;5.494;2024-01-30T19:23:27;13.18;;;6.07;;
47896;SDS011;39629;51.400;5.494;2024-01-30T19:28:28;12.85;;;5.88;;
47896;SDS011;39629;51.400;5.494;2024-01-30T19:33:31;12.80;;;6.20;;
47896;SDS011;39629;51.400;5.494;2024-01-30T19:38:34;12.98;;;6.70;;
47896;SDS011;39629;51.400;5.494;2024-01-30T19:43:35;18.35;;;6.93;;
47896;SDS011;39629;51.400;5.494;2024-01-30T19:48:38;16.05;;;7.15;;
47896;SDS011;39629;51.400;5.494;2024-01-30T19:53:41;14.90;;;7.43;;
47896;SDS011;39629;51.400;5.494;2024-01-30T19:58:43;18.10;;;7.60;;
47896;SDS011;39629;51.400;5.494;2024-01-30T20:03:46;17.08;;;7.63;;
47896;SDS011;39629;51.400;5.494;2024-01-30T20:08:48;14.60;;;7.60;;
47896;SDS011;39629;51.400;5.494;2024-01-30T20:13:49;17.92;;;8.73;;
47896;SDS011;39629;51.400;5.494;2024-01-30T20:18:52;17.58;;;8.07;;
47896;SDS011;39629;51.400;5.494;2024-01-30T20:23:54;16.80;;;7.68;;
47896;SDS011;39629;51.400;5.494;2024-01-30T20:28:55;22.75;;;9.52;;
47896;SDS011;39629;51.400;5.494;2024-01-30T20:33:59;20.85;;;9.50;;
47896;SDS011;39629;51.400;5.494;2024-01-30T20:39:01;18.48;;;8.70;;
47896;SDS011;39629;51.400;5.494;2024-01-30T20:44:04;21.08;;;9.32;;
47896;SDS011;39629;51.400;5.494;2024-01-30T20:49:07;19.92;;;9.32;;
47896;SDS011;39629;51.400;5.494;2024-01-30T20:54:10;20.80;;;9.88;;
47896;SDS011;39629;51.400;5.494;2024-01-30T20:59:12;24.20;;;10.52;;
47896;SDS011;39629;51.400;5.494;2024-01-30T21:04:15;21.58;;;9.73;;
47896;SDS011;39629;51.400;5.494;2024-01-30T21:09:16;21.23;;;9.80;;
47896;SDS011;39629;51.400;5.494;2024-01-30T21:14:18;21.48;;;9.95;;
47896;SDS011;39629;51.400;5.494;2024-01-30T21:19:21;20.42;;;9.23;;
47896;SDS011;39629;51.400;5.494;2024-01-30T21:24:23;20.60;;;9.52;;
47896;SDS011;39629;51.400;5.494;2024-01-30T21:29:25;24.55;;;10.73;;
47896;SDS011;39629;51.400;5.494;2024-01-30T21:34:28;24.10;;;10.60;;
47896;SDS011;39629;51.400;5.494;2024-01-30T21:39:29;24.70;;;9.95;;
47896;SDS011;39629;51.400;5.494;2024-01-30T21:44:31;21.38;;;9.23;;
47896;SDS011;39629;51.400;5.494;2024-01-30T21:49:34;20.45;;;9.57;;
47896;SDS011;39629;51.400;5.494;2024-01-30T21:54:38;20.55;;;9.75;;
47896;SDS011;39629;51.400;5.494;2024-01-30T21:59:40;23.52;;;10.35;;
47896;SDS011;39629;51.400;5.494;2024-01-30T22:04:43;19.65;;;9.02;;
47896;SDS011;39629;51.400;5.494;2024-01-30T22:14:47;20.75;;;9.50;;
47896;SDS011;39629;51.400;5.494;2024-01-30T22:19:50;18.90;;;8.07;;
47896;SDS011;39629;51.400;5.494;2024-01-30T22:24:53;22.27;;;8.33;;
47896;SDS011;39629;51.400;5.494;2024-01-30T22:29:54;17.80;;;7.60;;
47896;SDS011;39629;51.400;5.494;2024-01-30T22:34:57;19.42;;;7.97;;
47896;SDS011;39629;51.400;5.494;2024-01-30T22:39:59;18.90;;;7.93;;
47896;SDS011;39629;51.400;5.494;2024-01-30T22:45:00;20.60;;;7.43;;
47896;SDS011;39629;51.400;5.494;2024-01-30T22:50:04;20.42;;;7.80;;
47896;SDS011;39629;51.400;5.494;2024-01-30T22:55:06;17.30;;;6.78;;
47896;SDS011;39629;51.400;5.494;2024-01-30T23:00:09;15.73;;;6.85;;
47896;SDS011;39629;51.400;5.494;2024-01-30T23:05:16;15.25;;;6.82;;
47896;SDS011;39629;51.400;5.494;2024-01-30T23:10:17;15.50;;;6.50;;
47896;SDS011;39629;51.400;5.494;2024-01-30T23:15:20;19.10;;;7.15;;
47896;SDS011;39629;51.400;5.494;2024-01-30T23:20:23;16.33;;;6.63;;
47896;SDS011;39629;51.400;5.494;2024-01-30T23:25:25;14.88;;;6.28;;
47896;SDS011;39629;51.400;5.494;2024-01-30T23:30:27;15.93;;;6.57;;
47896;SDS011;39629;51.400;5.494;2024-01-30T23:35:30;14.32;;;6.32;;
47896;SDS011;39629;51.400;5.494;2024-01-30T23:40:32;16.20;;;6.95;;
47896;SDS011;39629;51.400;5.494;2024-01-30T23:45:33;20.58;;;6.75;;
47896;SDS011;39629;51.400;5.494;2024-01-30T23:50:36;15.70;;;5.97;;
47896;SDS011;39629;51.400;5.494;2024-01-30T23:55:38;18.40;;;6.55;;
